sensor_id;sensor_type;location;lat;lon;timestamp;pressure;altitude;pressure_sealevel;temperature;humidity
72116;BME280;59991;52.140;5.428;2023-03-04T00:00:22;102711.66;;;5.03;78.32
72116;BME280;59991;52.140;5.428;2023-03-04T00:00:53;102715.16;;;5.03;78.41
72116;BME280;59991;52.140;5.428;2023-03-04T00:01:25;102708.94;;;5.03;78.70
72116;BME280;59991;52.140;5.428;2023-03-04T00:01:57;102720.78;;;5.07;78.57
72116;BME280;59991;52.140;5.428;2023-03-04T00:02:28;102721.88;;;5.06;78.51
72116;BME280;59991;52.140;5.428;2023-03-04T00:02:59;102712.97;;;5.05;78.27
72116;BME280;59991;52.140;5.428;2023-03-04T00:03:31;102720.78;;;5.07;78.76
72116;BME280;59991;52.140;5.428;2023-03-04T00:04:03;102707.84;;;5.04;78.59
72116;BME280;59991;52.140;5.428;2023-03-04T00:04:34;102711.66;;;5.03;79.03
72116;BME280;59991;52.140;5.428;2023-03-04T00:05:06;102721.59;;;5.07;78.52
72116;BME280;59991;52.140;5.428;2023-03-04T00:05:37;102712.16;;;5.05;78.87
72116;BME280;59991;52.140;5.428;2023-03-04T00:06:09;102712.47;;;5.03;79.00
72116;BME280;59991;52.140;5.428;2023-03-04T00:06:40;102707.84;;;5.04;78.94
72116;BME280;59991;52.140;5.428;2023-03-04T00:07:12;102711.66;;;5.03;78.79
72116;BME280;59991;52.140;5.428;2023-03-04T00:07:46;102720.50;;;5.08;78.60
72116;BME280;59991;52.140;5.428;2023-03-04T00:08:18;102719.47;;;5.04;78.85
72116;BME280;59991;52.140;5.428;2023-03-04T00:08:49;102717.56;;;5.05;78.68
72116;BME280;59991;52.140;5.428;2023-03-04T00:09:21;102718.09;;;5.07;78.77
72116;BME280;59991;52.140;5.428;2023-03-04T00:09:56;102721.31;;;5.09;78.68
72116;BME280;59991;52.140;5.428;2023-03-04T00:10:27;102716.19;;;5.07;79.38
72116;BME280;59991;52.140;5.428;2023-03-04T00:10:59;102717.28;;;5.06;79.05
72116;BME280;59991;52.140;5.428;2023-03-04T00:11:35;102725.09;;;5.08;79.14
72116;BME280;59991;52.140;5.428;2023-03-04T00:12:06;102717.56;;;5.05;79.40
72116;BME280;59991;52.140;5.428;2023-03-04T00:12:38;102718.09;;;5.07;79.54
72116;BME280;59991;52.140;5.428;2023-03-04T00:13:10;102719.19;;;5.06;79.15
72116;BME280;59991;52.140;5.428;2023-03-04T00:13:41;102713.78;;;5.06;79.40
72116;BME280;59991;52.140;5.428;2023-03-04T00:14:13;102720.28;;;5.05;79.07
72116;BME280;59991;52.140;5.428;2023-03-04T00:14:44;102717.88;;;5.03;79.44
72116;BME280;59991;52.140;5.428;2023-03-04T00:15:16;102715.97;;;5.04;79.48
72116;BME280;59991;52.140;5.428;2023-03-04T00:15:47;102720.00;;;5.06;79.66
72116;BME280;59991;52.140;5.428;2023-03-04T00:16:19;102712.75;;;5.02;79.62
72116;BME280;59991;52.140;5.428;2023-03-04T00:16:50;102722.97;;;5.05;79.47
72116;BME280;59991;52.140;5.428;2023-03-04T00:17:22;102715.97;;;5.04;79.88
72116;BME280;59991;52.140;5.428;2023-03-04T00:17:54;102714.66;;;5.01;79.94
72116;BME280;59991;52.140;5.428;2023-03-04T00:18:26;102711.94;;;5.01;80.00
72116;BME280;59991;52.140;5.428;2023-03-04T00:18:57;102724.06;;;5.04;80.00
72116;BME280;59991;52.140;5.428;2023-03-04T00:19:29;102714.34;;;5.03;80.00
72116;BME280;59991;52.140;5.428;2023-03-04T00:20:02;102722.19;;;5.04;80.09
72116;BME280;59991;52.140;5.428;2023-03-04T00:20:33;102712.75;;;5.02;80.00
72116;BME280;59991;52.140;5.428;2023-03-04T00:21:05;102719.47;;;5.04;80.18
72116;BME280;59991;52.140;5.428;2023-03-04T00:21:36;102714.34;;;5.03;80.26
72116;BME280;59991;52.140;5.428;2023-03-04T00:22:08;102712.47;;;5.03;79.63
72116;BME280;59991;52.140;5.428;2023-03-04T00:22:39;102715.97;;;5.04;80.03
72116;BME280;59991;52.140;5.428;2023-03-04T00:23:11;102711.66;;;5.03;79.69
72116;BME280;59991;52.140;5.428;2023-03-04T00:23:43;102715.66;;;5.05;79.56
72116;BME280;59991;52.140;5.428;2023-03-04T00:24:14;102711.34;;;5.04;79.54
72116;BME280;59991;52.140;5.428;2023-03-04T00:24:46;102718.09;;;5.07;79.58
72116;BME280;59991;52.140;5.428;2023-03-04T00:25:17;102715.38;;;5.07;79.21
72116;BME280;59991;52.140;5.428;2023-03-04T00:25:49;102718.09;;;5.07;79.27
72116;BME280;59991;52.140;5.428;2023-03-04T00:26:21;102715.09;;;5.08;79.39
72116;BME280;59991;52.140;5.428;2023-03-04T00:26:52;102712.16;;;5.05;79.80
72116;BME280;59991;52.140;5.428;2023-03-04T00:27:24;102714.28;;;5.08;79.63
72116;BME280;59991;52.140;5.428;2023-03-04T00:27:55;102714.00;;;5.09;79.40
72116;BME280;59991;52.140;5.428;2023-03-04T00:28:28;102712.69;;;5.07;79.17
72116;BME280;59991;52.140;5.428;2023-03-04T00:28:59;102710.56;;;5.04;79.29
72116;BME280;59991;52.140;5.428;2023-03-04T00:29:31;102713.47;;;5.07;79.55
72116;BME280;59991;52.140;5.428;2023-03-04T00:30:04;102710.03;;;5.02;79.17
72116;BME280;59991;52.140;5.428;2023-03-04T00:30:36;102710.84;;;5.02;79.33
72116;BME280;59991;52.140;5.428;2023-03-04T00:31:08;102722.41;;;5.08;79.00
72116;BME280;59991;52.140;5.428;2023-03-04T00:31:39;102719.69;;;5.08;79.67
72116;BME280;59991;52.140;5.428;2023-03-04T00:32:11;102709.75;;;5.03;79.36
72116;BME280;59991;52.140;5.428;2023-03-04T00:32:43;102718.09;;;5.07;79.64
72116;BME280;59991;52.140;5.428;2023-03-04T00:33:14;102712.97;;;5.05;79.69
72116;BME280;59991;52.140;5.428;2023-03-04T00:33:46;102712.16;;;5.05;79.21
72116;BME280;59991;52.140;5.428;2023-03-04T00:34:18;102721.06;;;5.05;79.19
72116;BME280;59991;52.140;5.428;2023-03-04T00:34:50;102715.16;;;5.03;79.04
72116;BME280;59991;52.140;5.428;2023-03-04T00:35:21;102704.97;;;5.00;79.34
72116;BME280;59991;52.140;5.428;2023-03-04T00:35:53;102714.34;;;5.03;79.39
72116;BME280;59991;52.140;5.428;2023-03-04T00:36:24;102716.53;;;5.01;79.15
72116;BME280;59991;52.140;5.428;2023-03-04T00:36:55;102716.78;;;5.04;79.22
72116;BME280;59991;52.140;5.428;2023-03-04T00:37:34;102711.13;;;5.01;79.07
72116;BME280;59991;52.140;5.428;2023-03-04T00:38:05;102721.38;;;5.04;79.23
72116;BME280;59991;52.140;5.428;2023-03-04T00:38:37;102727.28;;;5.06;79.05
72116;BME280;59991;52.140;5.428;2023-03-04T00:39:10;102723.78;;;5.05;79.00
72116;BME280;59991;52.140;5.428;2023-03-04T00:39:42;102713.84;;;5.01;79.18
72116;BME280;59991;52.140;5.428;2023-03-04T00:40:16;102722.75;;;5.01;79.27
72116;BME280;59991;52.140;5.428;2023-03-04T00:40:48;102718.97;;;5.02;79.09
72116;BME280;59991;52.140;5.428;2023-03-04T00:41:19;102721.06;;;5.05;79.14
72116;BME280;59991;52.140;5.428;2023-03-04T00:41:50;102717.34;;;5.01;79.00
72116;BME280;59991;52.140;5.428;2023-03-04T00:42:22;102716.25;;;5.02;79.23
72116;BME280;59991;52.140;5.428;2023-03-04T00:42:53;102718.66;;;5.04;79.17
72116;BME280;59991;52.140;5.428;2023-03-04T00:43:25;102717.34;;;5.01;79.38
72116;BME280;59991;52.140;5.428;2023-03-04T00:43:56;102718.16;;;5.02;79.44
72116;BME280;59991;52.140;5.428;2023-03-04T00:44:27;102715.78;;;5.00;79.10
72116;BME280;59991;52.140;5.428;2023-03-04T00:44:59;102716.53;;;5.01;79.22
72116;BME280;59991;52.140;5.428;2023-03-04T00:45:30;102707.94;;;4.99;79.04
72116;BME280;59991;52.140;5.428;2023-03-04T00:46:02;102709.56;;;5.00;79.51
72116;BME280;59991;52.140;5.428;2023-03-04T00:46:33;102714.66;;;5.01;78.98
72116;BME280;59991;52.140;5.428;2023-03-04T00:47:05;102707.16;;;4.98;78.67
72116;BME280;59991;52.140;5.428;2023-03-04T00:47:37;102714.16;;;4.99;79.01
72116;BME280;59991;52.140;5.428;2023-03-04T00:48:08;102716.53;;;5.01;78.99
72116;BME280;59991;52.140;5.428;2023-03-04T00:48:39;102714.97;;;5.00;78.59
72116;BME280;59991;52.140;5.428;2023-03-04T00:49:11;102706.34;;;4.98;78.99
72116;BME280;59991;52.140;5.428;2023-03-04T00:49:42;102709.84;;;4.98;78.83
72116;BME280;59991;52.140;5.428;2023-03-04T00:50:14;102710.94;;;4.97;78.74
72116;BME280;59991;52.140;5.428;2023-03-04T00:50:45;102711.13;;;5.01;79.13
72116;BME280;59991;52.140;5.428;2023-03-04T00:51:17;102704.97;;;5.00;79.35
72116;BME280;59991;52.140;5.428;2023-03-04T00:51:48;102709.06;;;4.98;78.95
72116;BME280;59991;52.140;5.428;2023-03-04T00:52:19;102710.94;;;4.97;79.44
72116;BME280;59991;52.140;5.428;2023-03-04T00:52:51;102707.94;;;4.99;78.83
72116;BME280;59991;52.140;5.428;2023-03-04T00:53:22;102710.94;;;4.97;79.38
72116;BME280;59991;52.140;5.428;2023-03-04T00:53:54;102717.66;;;5.00;79.38
72116;BME280;59991;52.140;5.428;2023-03-04T00:54:26;102709.84;;;4.98;78.85
72116;BME280;59991;52.140;5.428;2023-03-04T00:54:57;102717.34;;;5.01;79.52
72116;BME280;59991;52.140;5.428;2023-03-04T00:55:29;102713.06;;;5.00;79.05
72116;BME280;59991;52.140;5.428;2023-03-04T00:56:01;102710.13;;;4.97;79.12
72116;BME280;59991;52.140;5.428;2023-03-04T00:56:32;102716.88;;;4.99;78.99
72116;BME280;59991;52.140;5.428;2023-03-04T00:57:03;102711.94;;;5.01;79.10
72116;BME280;59991;52.140;5.428;2023-03-04T00:57:35;102710.66;;;4.99;79.77
72116;BME280;59991;52.140;5.428;2023-03-04T00:58:06;102714.34;;;5.03;79.55
72116;BME280;59991;52.140;5.428;2023-03-04T00:58:38;102713.06;;;5.00;79.58
72116;BME280;59991;52.140;5.428;2023-03-04T00:59:10;102712.25;;;5.00;79.45
72116;BME280;59991;52.140;5.428;2023-03-04T00:59:42;102721.66;;;5.02;79.63
72116;BME280;59991;52.140;5.428;2023-03-04T01:00:14;102715.97;;;5.04;79.40
72116;BME280;59991;52.140;5.428;2023-03-04T01:00:46;102716.25;;;5.02;79.29
72116;BME280;59991;52.140;5.428;2023-03-04T01:01:17;102719.25;;;5.01;79.76
72116;BME280;59991;52.140;5.428;2023-03-04T01:01:49;102715.78;;;5.00;79.34
72116;BME280;59991;52.140;5.428;2023-03-04T01:02:23;102720.84;;;5.02;79.36
72116;BME280;59991;52.140;5.428;2023-03-04T01:02:54;102719.75;;;5.03;79.67
72116;BME280;59991;52.140;5.428;2023-03-04T01:03:26;102720.28;;;5.05;79.57
72116;BME280;59991;52.140;5.428;2023-03-04T01:04:01;102713.84;;;5.01;79.35
72116;BME280;59991;52.140;5.428;2023-03-04T01:04:33;102718.16;;;5.02;79.55
72116;BME280;59991;52.140;5.428;2023-03-04T01:05:05;102725.16;;;5.03;79.32
72116;BME280;59991;52.140;5.428;2023-03-04T01:05:36;102710.66;;;4.99;78.97
72116;BME280;59991;52.140;5.428;2023-03-04T01:06:08;102709.56;;;5.00;79.41
72116;BME280;59991;52.140;5.428;2023-03-04T01:06:39;102712.56;;;4.98;79.03
72116;BME280;59991;52.140;5.428;2023-03-04T01:07:11;102716.88;;;4.99;79.15
72116;BME280;59991;52.140;5.428;2023-03-04T01:07:42;102718.25;;;4.97;79.07
72116;BME280;59991;52.140;5.428;2023-03-04T01:08:14;102705.03;;;4.95;79.17
72116;BME280;59991;52.140;5.428;2023-03-04T01:08:45;102722.75;;;5.01;79.19
72116;BME280;59991;52.140;5.428;2023-03-04T01:09:17;102713.66;;;4.97;79.56
72116;BME280;59991;52.140;5.428;2023-03-04T01:09:48;102723.06;;;5.00;79.22
72116;BME280;59991;52.140;5.428;2023-03-04T01:10:20;102718.47;;;5.00;79.17
72116;BME280;59991;52.140;5.428;2023-03-04T01:10:52;102722.75;;;5.01;79.64
72116;BME280;59991;52.140;5.428;2023-03-04T01:11:23;102712.56;;;4.98;79.18
72116;BME280;59991;52.140;5.428;2023-03-04T01:11:55;102712.56;;;4.98;79.49
72116;BME280;59991;52.140;5.428;2023-03-04T01:12:28;102718.97;;;5.02;79.45
72116;BME280;59991;52.140;5.428;2023-03-04T01:12:59;102724.66;;;5.01;79.70
72116;BME280;59991;52.140;5.428;2023-03-04T01:13:31;102721.47;;;4.99;79.20
72116;BME280;59991;52.140;5.428;2023-03-04T01:14:06;102721.94;;;5.01;79.17
72116;BME280;59991;52.140;5.428;2023-03-04T01:14:37;102720.06;;;5.01;79.72
72116;BME280;59991;52.140;5.428;2023-03-04T01:15:11;102725.97;;;5.03;79.43
72116;BME280;59991;52.140;5.428;2023-03-04T01:15:43;102717.34;;;5.01;79.33
72116;BME280;59991;52.140;5.428;2023-03-04T01:16:15;102712.56;;;4.98;79.38
72116;BME280;59991;52.140;5.428;2023-03-04T01:16:47;102721.66;;;5.02;79.17
72116;BME280;59991;52.140;5.428;2023-03-04T01:17:18;102723.56;;;5.02;79.50
72116;BME280;59991;52.140;5.428;2023-03-04T01:17:50;102715.25;;;4.98;79.56
72116;BME280;59991;52.140;5.428;2023-03-04T01:18:22;102717.66;;;5.00;79.77
72116;BME280;59991;52.140;5.428;2023-03-04T01:18:54;102713.34;;;4.99;79.90
72116;BME280;59991;52.140;5.428;2023-03-04T01:19:25;102716.06;;;4.99;79.75
72116;BME280;59991;52.140;5.428;2023-03-04T01:19:57;102715.78;;;5.00;79.69
72116;BME280;59991;52.140;5.428;2023-03-04T01:20:28;102710.94;;;4.97;79.23
72116;BME280;59991;52.140;5.428;2023-03-04T01:21:00;102712.25;;;5.00;79.88
72116;BME280;59991;52.140;5.428;2023-03-04T01:21:31;102714.66;;;5.01;80.07
72116;BME280;59991;52.140;5.428;2023-03-04T01:22:03;102709.06;;;4.98;80.05
72116;BME280;59991;52.140;5.428;2023-03-04T01:22:34;102715.25;;;4.98;79.87
72116;BME280;59991;52.140;5.428;2023-03-04T01:23:06;102715.78;;;5.00;80.19
72116;BME280;59991;52.140;5.428;2023-03-04T01:23:37;102713.56;;;5.02;80.44
72116;BME280;59991;52.140;5.428;2023-03-04T01:24:09;102709.56;;;5.00;79.90
72116;BME280;59991;52.140;5.428;2023-03-04T01:24:40;102710.38;;;5.00;80.05
72116;BME280;59991;52.140;5.428;2023-03-04T01:25:11;102711.94;;;5.01;79.89
72116;BME280;59991;52.140;5.428;2023-03-04T01:25:43;102710.84;;;5.02;79.96
72116;BME280;59991;52.140;5.428;2023-03-04T01:26:14;102708.44;;;5.01;80.02
72116;BME280;59991;52.140;5.428;2023-03-04T01:26:46;102705.25;;;4.99;80.42
72116;BME280;59991;52.140;5.428;2023-03-04T01:27:17;102707.34;;;5.02;80.00
72116;BME280;59991;52.140;5.428;2023-03-04T01:27:49;102702.25;;;5.00;80.33
72116;BME280;59991;52.140;5.428;2023-03-04T01:28:23;102705.53;;;4.97;80.26
72116;BME280;59991;52.140;5.428;2023-03-04T01:28:55;102704.16;;;5.00;80.19
72116;BME280;59991;52.140;5.428;2023-03-04T01:29:26;102704.97;;;5.00;80.45
72116;BME280;59991;52.140;5.428;2023-03-04T01:30:00;102709.25;;;5.01;80.55
72116;BME280;59991;52.140;5.428;2023-03-04T01:30:32;102706.53;;;5.01;80.50
72116;BME280;59991;52.140;5.428;2023-03-04T01:31:03;102709.56;;;5.00;80.60
72116;BME280;59991;52.140;5.428;2023-03-04T01:31:35;102700.31;;;5.01;80.43
72116;BME280;59991;52.140;5.428;2023-03-04T01:32:07;102697.13;;;4.99;80.79
72116;BME280;59991;52.140;5.428;2023-03-04T01:32:38;102704.16;;;5.00;80.85
72116;BME280;59991;52.140;5.428;2023-03-04T01:33:10;102706.84;;;5.00;80.82
72116;BME280;59991;52.140;5.428;2023-03-04T01:33:41;102702.84;;;4.97;80.52
72116;BME280;59991;52.140;5.428;2023-03-04T01:34:13;102694.72;;;4.97;80.50
72116;BME280;59991;52.140;5.428;2023-03-04T01:34:44;102700.94;;;4.98;80.15
72116;BME280;59991;52.140;5.428;2023-03-04T01:35:16;102694.72;;;4.97;80.16
72116;BME280;59991;52.140;5.428;2023-03-04T01:35:47;102697.72;;;4.96;79.72
72116;BME280;59991;52.140;5.428;2023-03-04T01:36:19;102693.63;;;4.98;80.15
72116;BME280;59991;52.140;5.428;2023-03-04T01:36:50;102699.56;;;5.00;79.63
72116;BME280;59991;52.140;5.428;2023-03-04T01:37:22;102693.91;;;4.97;79.95
72116;BME280;59991;52.140;5.428;2023-03-04T01:37:53;102691.22;;;4.97;79.83
72116;BME280;59991;52.140;5.428;2023-03-04T01:38:25;102698.22;;;4.98;79.76
72116;BME280;59991;52.140;5.428;2023-03-04T01:38:56;102685.00;;;4.96;79.50
72116;BME280;59991;52.140;5.428;2023-03-04T01:39:28;102696.53;;;5.02;79.44
72116;BME280;59991;52.140;5.428;2023-03-04T01:39:59;102684.72;;;4.98;80.02
72116;BME280;59991;52.140;5.428;2023-03-04T01:40:31;102699.75;;;5.04;79.84
72116;BME280;59991;52.140;5.428;2023-03-04T01:41:02;102695.72;;;5.01;79.74
72116;BME280;59991;52.140;5.428;2023-03-04T01:41:34;102694.34;;;5.04;79.69
72116;BME280;59991;52.140;5.428;2023-03-04T01:42:13;102698.66;;;5.05;79.76
72116;BME280;59991;52.140;5.428;2023-03-04T01:42:47;102699.44;;;5.05;80.11
72116;BME280;59991;52.140;5.428;2023-03-04T01:43:24;102696.22;;;5.03;79.72
72116;BME280;59991;52.140;5.428;2023-03-04T01:43:58;102695.94;;;5.05;80.23
72116;BME280;59991;52.140;5.428;2023-03-04T01:44:35;102698.13;;;5.03;80.14
72116;BME280;59991;52.140;5.428;2023-03-04T01:45:11;102693.53;;;5.03;79.63
72116;BME280;59991;52.140;5.428;2023-03-04T01:45:43;102692.44;;;5.04;79.66
72116;BME280;59991;52.140;5.428;2023-03-04T01:46:14;102685.72;;;5.02;79.94
72116;BME280;59991;52.140;5.428;2023-03-04T01:46:51;102693.81;;;5.02;79.72
72116;BME280;59991;52.140;5.428;2023-03-04T01:47:26;102698.66;;;5.05;79.45
72116;BME280;59991;52.140;5.428;2023-03-04T01:47:59;102695.94;;;5.05;79.52
72116;BME280;59991;52.140;5.428;2023-03-04T01:48:36;102689.72;;;5.04;79.91
72116;BME280;59991;52.140;5.428;2023-03-04T01:49:09;102684.09;;;5.01;79.44
72116;BME280;59991;52.140;5.428;2023-03-04T01:49:42;102686.03;;;5.00;79.44
72116;BME280;59991;52.140;5.428;2023-03-04T01:50:21;102681.41;;;5.01;79.49
72116;BME280;59991;52.140;5.428;2023-03-04T01:50:54;102678.50;;;4.97;79.80
72116;BME280;59991;52.140;5.428;2023-03-04T01:51:25;102678.69;;;5.01;79.22
72116;BME280;59991;52.140;5.428;2023-03-04T01:51:57;102677.59;;;5.02;79.43
72116;BME280;59991;52.140;5.428;2023-03-04T01:52:28;102683.53;;;5.04;79.62
72116;BME280;59991;52.140;5.428;2023-03-04T01:53:01;102681.91;;;5.03;79.37
72116;BME280;59991;52.140;5.428;2023-03-04T01:53:32;102683.00;;;5.02;79.55
72116;BME280;59991;52.140;5.428;2023-03-04T01:54:07;102674.69;;;4.98;79.51
72116;BME280;59991;52.140;5.428;2023-03-04T01:54:39;102681.09;;;5.02;79.54
72116;BME280;59991;52.140;5.428;2023-03-04T01:55:21;102681.63;;;5.04;79.45
72116;BME280;59991;52.140;5.428;2023-03-04T01:55:55;102678.69;;;5.01;79.86
72116;BME280;59991;52.140;5.428;2023-03-04T01:56:30;102676.50;;;5.03;79.62
72116;BME280;59991;52.140;5.428;2023-03-04T01:57:15;102687.31;;;5.03;79.51
72116;BME280;59991;52.140;5.428;2023-03-04T01:57:49;102677.59;;;5.02;79.48
72116;BME280;59991;52.140;5.428;2023-03-04T01:58:24;102673.00;;;5.02;79.47
72116;BME280;59991;52.140;5.428;2023-03-04T01:59:13;102668.38;;;5.03;79.25
72116;BME280;59991;52.140;5.428;2023-03-04T01:59:46;102676.00;;;5.01;79.77
72116;BME280;59991;52.140;5.428;2023-03-04T02:00:52;102673.28;;;5.01;79.50
72116;BME280;59991;52.140;5.428;2023-03-04T02:01:24;102675.22;;;5.00;79.79
72116;BME280;59991;52.140;5.428;2023-03-04T02:01:58;102670.28;;;5.02;79.36
72116;BME280;59991;52.140;5.428;2023-03-04T02:02:29;102671.38;;;5.01;79.43
72116;BME280;59991;52.140;5.428;2023-03-04T02:03:05;102671.09;;;5.03;79.23
72116;BME280;59991;52.140;5.428;2023-03-04T02:03:41;102669.50;;;5.02;79.33
72116;BME280;59991;52.140;5.428;2023-03-04T02:04:14;102665.97;;;5.01;79.38
72116;BME280;59991;52.140;5.428;2023-03-04T02:04:46;102669.19;;;5.03;79.35
72116;BME280;59991;52.140;5.428;2023-03-04T02:05:19;102667.88;;;5.01;78.40
72116;BME280;59991;52.140;5.428;2023-03-04T02:05:52;102671.91;;;5.03;78.72
72116;BME280;59991;52.140;5.428;2023-03-04T02:06:24;102661.69;;;5.00;78.74
72116;BME280;59991;52.140;5.428;2023-03-04T02:06:56;102670.59;;;5.01;79.08
72116;BME280;59991;52.140;5.428;2023-03-04T02:07:28;102658.47;;;4.98;78.35
72116;BME280;59991;52.140;5.428;2023-03-04T02:07:59;102663.38;;;4.96;78.00
72116;BME280;59991;52.140;5.428;2023-03-04T02:08:33;102655.56;;;4.95;77.94
72116;BME280;59991;52.140;5.428;2023-03-04T02:09:05;102661.47;;;4.97;77.50
72116;BME280;59991;52.140;5.428;2023-03-04T02:09:37;102654.75;;;4.94;77.81
72116;BME280;59991;52.140;5.428;2023-03-04T02:10:10;102662.00;;;4.99;77.49
72116;BME280;59991;52.140;5.428;2023-03-04T02:10:43;102662.28;;;4.97;77.58
72116;BME280;59991;52.140;5.428;2023-03-04T02:11:15;102656.88;;;4.97;77.27
72116;BME280;59991;52.140;5.428;2023-03-04T02:11:48;102663.09;;;4.98;77.11
72116;BME280;59991;52.140;5.428;2023-03-04T02:12:20;102657.97;;;4.96;77.20
72116;BME280;59991;52.140;5.428;2023-03-04T02:12:52;102668.50;;;4.98;77.22
72116;BME280;59991;52.140;5.428;2023-03-04T02:13:24;102659.56;;;4.97;76.98
72116;BME280;59991;52.140;5.428;2023-03-04T02:13:56;102656.06;;;4.97;76.81
72116;BME280;59991;52.140;5.428;2023-03-04T02:14:27;102660.69;;;4.96;76.59
72116;BME280;59991;52.140;5.428;2023-03-04T02:14:59;102658.78;;;4.97;76.74
72116;BME280;59991;52.140;5.428;2023-03-04T02:15:31;102657.97;;;4.96;76.69
72116;BME280;59991;52.140;5.428;2023-03-04T02:16:02;102655.56;;;4.95;76.37
72116;BME280;59991;52.140;5.428;2023-03-04T02:16:34;102657.47;;;4.94;76.42
72116;BME280;59991;52.140;5.428;2023-03-04T02:17:11;102654.47;;;4.96;77.03
72116;BME280;59991;52.140;5.428;2023-03-04T02:17:43;102652.84;;;4.95;76.97
72116;BME280;59991;52.140;5.428;2023-03-04T02:18:23;102656.06;;;4.97;76.96
72116;BME280;59991;52.140;5.428;2023-03-04T02:18:55;102651.75;;;4.96;76.69
72116;BME280;59991;52.140;5.428;2023-03-04T02:20:44;102654.47;;;4.96;76.63
72116;BME280;59991;52.140;5.428;2023-03-04T02:21:22;102656.38;;;4.95;76.92
72116;BME280;59991;52.140;5.428;2023-03-04T02:21:55;102653.66;;;4.95;77.20
72116;BME280;59991;52.140;5.428;2023-03-04T02:22:26;102651.75;;;4.96;77.00
72116;BME280;59991;52.140;5.428;2023-03-04T02:23:16;102649.06;;;4.96;77.35
72116;BME280;59991;52.140;5.428;2023-03-04T02:24:14;102649.06;;;4.96;77.10
72116;BME280;59991;52.140;5.428;2023-03-04T02:25:00;102653.66;;;4.95;77.23
72116;BME280;59991;52.140;5.428;2023-03-04T02:25:38;102649.06;;;4.96;77.70
72116;BME280;59991;52.140;5.428;2023-03-04T02:26:18;102649.06;;;4.96;77.65
72116;BME280;59991;52.140;5.428;2023-03-04T02:26:50;102649.34;;;4.94;77.51
72116;BME280;59991;52.140;5.428;2023-03-04T02:27:21;102651.25;;;4.94;77.52
72116;BME280;59991;52.140;5.428;2023-03-04T02:27:53;102649.63;;;4.93;77.75
72116;BME280;59991;52.140;5.428;2023-03-04T02:28:24;102644.81;;;4.90;77.71
72116;BME280;59991;52.140;5.428;2023-03-04T02:28:57;102652.06;;;4.94;77.91
72116;BME280;59991;52.140;5.428;2023-03-04T02:29:29;102648.03;;;4.92;77.84
72116;BME280;59991;52.140;5.428;2023-03-04T02:30:01;102652.56;;;4.96;77.77
72116;BME280;59991;52.140;5.428;2023-03-04T02:30:37;102648.03;;;4.92;77.82
72116;BME280;59991;52.140;5.428;2023-03-04T02:31:22;102649.63;;;4.93;77.69
72116;BME280;59991;52.140;5.428;2023-03-04T02:31:54;102635.31;;;4.92;77.67
72116;BME280;59991;52.140;5.428;2023-03-04T02:32:26;102643.94;;;4.94;77.90
72116;BME280;59991;52.140;5.428;2023-03-04T02:32:57;102643.44;;;4.92;77.59
72116;BME280;59991;52.140;5.428;2023-03-04T02:33:29;102652.84;;;4.95;77.99
72116;BME280;59991;52.140;5.428;2023-03-04T02:34:04;102638.31;;;4.91;77.86
72116;BME280;59991;52.140;5.428;2023-03-04T02:34:36;102640.44;;;4.94;77.92
72116;BME280;59991;52.140;5.428;2023-03-04T02:35:15;102638.81;;;4.93;78.01
72116;BME280;59991;52.140;5.428;2023-03-04T02:35:47;102640.94;;;4.96;78.02
72116;BME280;59991;52.140;5.428;2023-03-04T02:36:19;102640.44;;;4.94;78.01
72116;BME280;59991;52.140;5.428;2023-03-04T02:36:52;102640.94;;;4.96;78.39
72116;BME280;59991;52.140;5.428;2023-03-04T02:37:24;102636.94;;;4.93;78.30
72116;BME280;59991;52.140;5.428;2023-03-04T02:37:56;102637.22;;;4.92;78.27
72116;BME280;59991;52.140;5.428;2023-03-04T02:38:27;102644.22;;;4.93;78.19
72116;BME280;59991;52.140;5.428;2023-03-04T02:39:06;102642.84;;;4.95;78.13
72116;BME280;59991;52.140;5.428;2023-03-04T02:39:46;102642.84;;;4.95;78.45
72116;BME280;59991;52.140;5.428;2023-03-04T02:40:27;102637.44;;;4.95;78.55
72116;BME280;59991;52.140;5.428;2023-03-04T02:41:00;102642.03;;;4.95;77.97
72116;BME280;59991;52.140;5.428;2023-03-04T02:41:32;102635.03;;;4.94;78.09
72116;BME280;59991;52.140;5.428;2023-03-04T02:42:04;102640.44;;;4.94;78.19
72116;BME280;59991;52.140;5.428;2023-03-04T02:42:35;102635.03;;;4.94;78.22
72116;BME280;59991;52.140;5.428;2023-03-04T02:43:10;102636.13;;;4.93;78.23
72116;BME280;59991;52.140;5.428;2023-03-04T02:43:44;102633.41;;;4.93;78.40
72116;BME280;59991;52.140;5.428;2023-03-04T02:44:20;102642.34;;;4.93;78.23
72116;BME280;59991;52.140;5.428;2023-03-04T02:44:59;102638.81;;;4.93;78.23
72116;BME280;59991;52.140;5.428;2023-03-04T02:45:43;102632.31;;;4.94;77.91
72116;BME280;59991;52.140;5.428;2023-03-04T02:46:15;102633.41;;;4.93;78.07
72116;BME280;59991;52.140;5.428;2023-03-04T02:46:48;102634.53;;;4.92;78.31
72116;BME280;59991;52.140;5.428;2023-03-04T02:47:19;102630.22;;;4.91;78.50
72116;BME280;59991;52.140;5.428;2023-03-04T02:47:51;102636.72;;;4.90;78.55
72116;BME280;59991;52.140;5.428;2023-03-04T02:48:22;102634.81;;;4.90;78.22
72116;BME280;59991;52.140;5.428;2023-03-04T02:48:54;102626.19;;;4.88;78.57
72116;BME280;59991;52.140;5.428;2023-03-04T02:49:27;102639.13;;;4.91;78.02
72116;BME280;59991;52.140;5.428;2023-03-04T02:49:59;102632.91;;;4.91;77.95
72116;BME280;59991;52.140;5.428;2023-03-04T02:50:35;102637.22;;;4.92;77.94
72116;BME280;59991;52.140;5.428;2023-03-04T02:51:07;102630.22;;;4.91;78.15
72116;BME280;59991;52.140;5.428;2023-03-04T02:51:39;102631.59;;;4.88;78.19
72116;BME280;59991;52.140;5.428;2023-03-04T02:52:18;102622.69;;;4.88;78.02
72116;BME280;59991;52.140;5.428;2023-03-04T02:52:50;102632.91;;;4.91;78.36
72116;BME280;59991;52.140;5.428;2023-03-04T02:53:22;102632.41;;;4.89;78.25
72116;BME280;59991;52.140;5.428;2023-03-04T02:53:55;102627.50;;;4.91;78.22
72116;BME280;59991;52.140;5.428;2023-03-04T02:54:27;102624.81;;;4.91;78.52
72116;BME280;59991;52.140;5.428;2023-03-04T02:54:59;102625.59;;;4.91;78.31
72116;BME280;59991;52.140;5.428;2023-03-04T02:55:31;102628.91;;;4.88;77.86